Time;durP1;ratioP1;P1;durP2;ratioP2;P2;SDS_P1;SDS_P2;PMS_P1;PMS_P2;Temp;Humidity;BMP_temperature;BMP_pressure;BME280_temperature;BME280_humidity;BME280_pressure;Samples;Min_cycle;Max_cycle;Signal;HPM_P1;HPM_P2
2021/07/18 00:02:10;;;;;;;4.10;3.63;;;;;;;30.42;61.95;100561.50;5072959;27;66170;-32
2021/07/18 00:04:41;;;;;;;6.50;4.10;;;;;;;30.44;62.49;100570.22;5070618;27;69099;-32
2021/07/18 00:07:11;;;;;;;5.15;3.83;;;;;;;30.48;63.42;100571.44;5073825;27;65867;-32
2021/07/18 00:09:41;;;;;;;4.60;3.40;;;;;;;30.54;63.37;100578.66;5071062;27;69004;-34
2021/07/18 00:12:13;;;;;;;;;;;;;;;30.33;65.79;100584.50;5070493;27;43232;-33
2021/07/18 00:14:44;;;;;;;4.63;4.22;;;;;;;30.56;64.19;100581.94;5070223;27;69014;-33
2021/07/18 00:17:14;;;;;;;4.35;3.97;;;;;;;30.44;63.40;100562.94;5072751;27;66286;-32
2021/07/18 00:19:45;;;;;;;4.15;3.75;;;;;;;30.65;63.27;100596.03;5071832;27;70365;-34
2021/07/18 00:22:16;;;;;;;5.10;3.90;;;;;;;30.67;63.90;100600.19;5074616;27;65440;-34
2021/07/18 00:24:47;;;;;;;3.92;3.45;;;;;;;30.70;63.63;100596.16;5032890;27;70881;-33
2021/07/18 00:27:17;;;;;;;7.20;4.00;;;;;;;30.72;64.44;100608.44;5076039;27;66075;-34
2021/07/18 00:29:47;;;;;;;3.80;3.50;;;;;;;30.79;64.55;100602.13;5075055;27;70173;-35
2021/07/18 00:32:18;;;;;;;4.95;4.10;;;;;;;30.80;64.15;100609.22;5073215;27;66411;-36
2021/07/18 00:34:49;;;;;;;4.13;3.73;;;;;;;30.81;64.51;100610.88;5075365;27;70740;-37
2021/07/18 00:37:19;;;;;;;9.50;4.28;;;;;;;30.90;65.08;100614.94;5073121;27;65494;-35
2021/07/18 00:39:49;;;;;;;4.22;3.70;;;;;;;30.94;65.12;100626.97;5073103;27;69969;-35
2021/07/18 00:42:21;;;;;;;4.50;4.13;;;;;;;30.93;64.82;100620.72;5056986;27;65589;-34
2021/07/18 00:44:57;;;;;;;4.13;3.83;;;;;;;31.01;65.04;100625.03;5073313;27;69989;-33
2021/07/18 00:47:28;;;;;;;11.18;4.40;;;;;;;31.00;65.27;100620.63;5076430;27;66079;-33
2021/07/18 00:50:09;;;;;;;7.32;3.80;;;;;;;31.09;65.56;100638.25;5072415;27;70231;-33
2021/07/18 00:52:40;;;;;;;7.85;4.38;;;;;;;31.11;65.49;100633.41;5074619;27;65322;-33
2021/07/18 00:55:11;;;;;;;11.32;3.92;;;;;;;31.15;65.35;100633.81;5076284;27;70349;-33
2021/07/18 00:57:45;;;;;;;7.57;3.83;;;;;;;30.90;64.73;100590.56;5077617;27;65223;-32
2021/07/18 01:00:17;;;;;;;4.07;3.63;;;;;;;30.89;65.46;100580.78;5072128;27;69369;-33
2021/07/18 01:02:52;;;;;;;3.72;3.42;;;;;;;31.16;65.04;100625.44;5078836;27;65402;-33
2021/07/18 01:05:24;;;;;;;3.83;3.53;;;;;;;31.12;64.86;100617.97;5074436;27;69652;-33
2021/07/18 01:07:54;;;;;;;3.78;3.47;;;;;;;31.12;65.69;100613.41;5075942;27;65445;-33
2021/07/18 01:10:25;;;;;;;7.85;3.45;;;;;;;31.26;64.54;100624.06;5074012;27;70436;-32
2021/07/18 01:12:55;;;;;;;3.38;3.17;;;;;;;31.28;65.14;100628.19;5074770;27;65870;-32
2021/07/18 01:15:41;;;;;;;3.55;3.25;;;;;;;31.31;64.78;100626.91;5075459;27;69322;-36
2021/07/18 01:18:14;;;;;;;5.55;3.33;;;;;;;31.35;64.94;100636.25;5060039;28;66297;-33
2021/07/18 01:20:45;;;;;;;3.45;3.15;;;;;;;31.34;64.60;100632.72;5072517;27;70521;-34
2021/07/18 01:23:15;;;;;;;3.60;3.30;;;;;;;31.33;64.78;100639.19;5075307;27;66333;-36
2021/07/18 01:25:52;;;;;;;6.32;3.22;;;;;;;31.39;64.57;100653.72;5074589;27;69947;-33
2021/07/18 01:28:37;;;;;;;3.45;3.15;;;;;;;31.42;64.13;100660.56;5059136;27;65928;-34
2021/07/18 01:31:08;;;;;;;7.32;3.58;;;;;;;31.42;63.92;100658.69;5074372;27;69364;-36
2021/07/18 01:33:48;;;;;;;3.83;3.53;;;;;;;31.35;64.70;100645.19;5074459;27;65536;-33
2021/07/18 01:36:19;;;;;;;4.53;3.58;;;;;;;31.42;64.66;100655.97;5077777;27;70133;-34
2021/07/18 01:38:49;;;;;;;3.30;3.00;;;;;;;31.47;64.76;100663.44;5073940;27;65526;-35
2021/07/18 01:41:19;;;;;;;3.70;3.40;;;;;;;31.43;64.86;100656.81;5057610;28;69183;-34
2021/07/18 01:43:51;;;;;;;3.58;3.28;;;;;;;31.39;64.38;100659.97;5076707;27;66981;-33
2021/07/18 01:46:22;;;;;;;3.42;3.13;;;;;;;31.45;64.33;100666.34;5073726;27;69772;-35
2021/07/18 01:48:54;;;;;;;3.42;3.13;;;;;;;31.48;64.27;100665.91;5078704;27;65585;-33
2021/07/18 01:51:26;;;;;;;7.88;3.15;;;;;;;31.45;64.76;100654.69;5074195;27;69893;-33
2021/07/18 01:53:58;;;;;;;5.45;4.43;;;;;;;31.56;64.91;100664.75;5052495;28;64187;-35
2021/07/18 01:56:29;;;;;;;15.50;4.70;;;;;;;31.58;64.66;100660.75;5078522;27;69602;-35
2021/07/18 01:59:00;;;;;;;14.30;5.63;;;;;;;31.55;64.34;100654.97;5080507;27;65859;-36
2021/07/18 02:01:33;;;;;;;7.57;4.70;;;;;;;31.47;63.34;100666.97;5076329;27;70408;-32
2021/07/18 02:04:03;;;;;;;14.15;4.55;;;;;;;31.34;61.46;100658.97;5074390;27;65679;-35
2021/07/18 02:06:33;;;;;;;11.57;4.20;;;;;;;31.21;60.37;100660.00;5072238;27;69914;-32
2021/07/18 02:09:05;;;;;;;12.82;4.25;;;;;;;31.09;59.74;100645.53;5072607;27;66791;-31
2021/07/18 02:11:35;;;;;;;12.70;3.77;;;;;;;31.03;58.59;100651.88;5075840;27;69588;-36
2021/07/18 02:14:05;;;;;;;12.02;3.35;;;;;;;30.93;57.87;100657.81;5067378;27;67097;-32
2021/07/18 02:16:36;;;;;;;23.05;3.78;;;;;;;30.84;57.02;100675.41;5071900;27;69845;-33
2021/07/18 02:19:08;;;;;;;12.18;3.25;;;;;;;30.77;56.03;100659.22;5074529;27;65623;-33
2021/07/18 02:21:42;;;;;;;7.03;2.97;;;;;;;30.66;54.55;100652.66;5071267;27;70516;-35
2021/07/18 02:24:13;;;;;;;6.05;3.55;;;;;;;30.54;54.71;100640.94;5073619;27;66138;-34
2021/07/18 02:26:56;;;;;;;10.40;3.10;;;;;;;30.49;54.11;100646.19;5057787;28;69988;-34
2021/07/18 02:29:38;;;;;;;9.23;2.90;;;;;;;30.43;54.54;100647.06;5069848;27;66236;-33
2021/07/18 02:32:08;;;;;;;8.07;2.97;;;;;;;30.33;53.22;100636.75;5067921;27;69933;-36
2021/07/18 02:34:38;;;;;;;18.17;3.30;;;;;;;30.31;54.06;100638.84;5073617;27;66823;-33
2021/07/18 02:37:09;;;;;;;9.10;3.28;;;;;;;30.23;52.91;100637.25;5073375;27;69573;-31
2021/07/18 02:39:39;;;;;;;13.43;3.60;;;;;;;30.27;53.47;100643.88;5059546;27;65451;-35
2021/07/18 02:42:09;;;;;;;7.25;2.95;;;;;;;30.19;52.65;100624.34;5052544;28;70323;-34
2021/07/18 02:44:40;;;;;;;6.53;3.10;;;;;;;30.20;52.91;100621.44;5076573;27;65149;-34
2021/07/18 02:47:10;;;;;;;10.63;3.38;;;;;;;30.17;51.94;100616.47;5076106;27;69910;-32
2021/07/18 02:49:46;;;;;;;12.20;3.00;;;;;;;30.16;51.85;100614.81;5071876;27;65887;-35
2021/07/18 02:52:17;;;;;;;13.43;2.92;;;;;;;30.16;51.60;100620.22;5069681;27;68955;-35
2021/07/18 02:54:50;;;;;;;30.90;3.05;;;;;;;30.07;51.20;100610.72;5059473;27;66317;-33
2021/07/18 02:57:45;;;;;;;18.42;3.25;;;;;;;30.11;51.16;100606.53;5070089;27;70325;-35
2021/07/18 03:00:17;;;;;;;16.38;2.92;;;;;;;29.84;50.48;100574.31;5046414;27;65752;-33
2021/07/18 03:02:49;;;;;;;14.88;2.67;;;;;;;30.08;50.20;100612.38;5073060;27;70100;-32
2021/07/18 03:05:20;;;;;;;18.50;3.28;;;;;;;30.12;54.08;100608.19;5073427;27;65425;-32
2021/07/18 03:07:51;;;;;;;12.40;2.83;;;;;;;30.12;53.79;100601.97;5057729;27;70524;-35
2021/07/18 03:10:21;;;;;;;9.85;2.78;;;;;;;30.13;52.88;100600.91;5071235;27;66515;-32
2021/07/18 03:12:51;;;;;;;10.73;2.90;;;;;;;30.12;51.63;100602.78;5074232;27;70272;-33
2021/07/18 03:15:22;;;;;;;8.48;2.85;;;;;;;30.12;52.08;100602.78;5067910;27;65937;-35
2021/07/18 03:17:52;;;;;;;34.25;3.40;;;;;;;29.99;51.31;100583.97;5055882;27;68993;-33
2021/07/18 03:20:23;;;;;;;17.92;2.85;;;;;;;30.15;53.58;100601.53;5067991;27;66073;-31
2021/07/18 03:22:53;;;;;;;24.10;3.83;;;;;;;30.19;54.37;100595.41;5058558;27;69938;-34
2021/07/18 03:25:28;;;;;;;13.63;3.08;;;;;;;30.18;53.33;100588.38;5069767;27;66739;-34
2021/07/18 03:27:58;;;;;;;9.80;2.42;;;;;;;30.13;52.87;100571.97;5074961;27;70357;-34
2021/07/18 03:30:28;;;;;;;28.77;3.17;;;;;;;30.21;51.61;100573.56;5074421;27;65598;-34
2021/07/18 03:32:59;;;;;;;21.02;2.80;;;;;;;30.19;51.32;100581.91;5066910;27;68976;-32
2021/07/18 03:35:30;;;;;;;25.63;3.70;;;;;;;30.17;51.15;100577.75;5055783;27;66480;-31
2021/07/18 03:38:01;;;;;;;15.60;2.25;;;;;;;30.14;50.52;100557.38;5072390;27;68671;-31
2021/07/18 03:40:31;;;;;;;16.55;2.53;;;;;;;30.16;50.53;100565.28;5072645;27;66449;-34
2021/07/18 03:43:02;;;;;;;9.48;2.90;;;;;;;30.20;51.47;100555.66;5069088;27;69932;-33
2021/07/18 03:45:32;;;;;;;18.58;2.80;;;;;;;30.16;52.05;100544.47;5073855;27;64673;-32
2021/07/18 03:48:03;;;;;;;26.65;3.13;;;;;;;30.19;52.61;100537.78;5073335;27;69364;-34
2021/07/18 03:50:34;;;;;;;17.67;3.35;;;;;;;30.16;52.82;100539.06;5069298;27;66267;-34
2021/07/18 03:53:04;;;;;;;7.18;2.70;;;;;;;30.13;52.63;100525.16;5073460;27;69400;-33
2021/07/18 03:55:34;;;;;;;10.40;2.97;;;;;;;30.08;52.60;100525.81;5067303;27;65298;-34
2021/07/18 03:58:05;;;;;;;8.18;2.72;;;;;;;30.11;51.65;100530.78;5069134;27;70506;-32
2021/07/18 04:00:36;;;;;;;4.00;2.38;;;;;;;30.15;50.83;100528.47;5069928;27;64884;-32
2021/07/18 04:03:06;;;;;;;8.23;2.75;;;;;;;30.15;51.33;100523.88;5070630;27;69391;-34
2021/07/18 04:05:36;;;;;;;4.63;2.50;;;;;;;30.14;50.97;100518.69;5072778;27;65560;-31
2021/07/18 04:08:07;;;;;;;7.82;2.78;;;;;;;30.08;50.33;100511.47;5065412;27;69801;-34
2021/07/18 04:10:37;;;;;;;6.28;2.47;;;;;;;30.13;49.42;100517.88;5070900;27;66677;-32
2021/07/18 04:13:07;;;;;;;8.98;2.45;;;;;;;30.14;49.19;100514.09;5066700;27;70611;-32
2021/07/18 04:15:38;;;;;;;14.50;2.30;;;;;;;30.13;48.91;100512.47;5073155;27;65450;-32
2021/07/18 04:18:10;;;;;;;11.55;2.58;;;;;;;30.09;47.92;100484.22;5070660;27;69918;-32
2021/07/18 04:20:41;;;;;;;4.47;2.28;;;;;;;30.12;47.73;100488.34;5073248;27;66027;-33
2021/07/18 04:23:11;;;;;;;10.18;2.40;;;;;;;30.12;47.22;100499.19;5066293;27;70019;-34
2021/07/18 04:25:43;;;;;;;13.80;2.45;;;;;;;30.10;47.71;100490.44;5065952;27;65712;-33
2021/07/18 04:28:14;;;;;;;10.80;2.42;;;;;;;30.03;46.72;100479.69;5069452;27;69637;-31
2021/07/18 04:30:45;;;;;;;10.18;2.80;;;;;;;30.09;46.50;100484.22;5073437;27;67697;-31
2021/07/18 04:33:20;;;;;;;4.65;1.95;;;;;;;30.04;45.67;100481.34;5066020;27;69584;-32
2021/07/18 04:35:50;;;;;;;5.63;2.33;;;;;;;30.07;47.57;100486.31;5069635;27;66820;-32
2021/07/18 04:38:21;;;;;;;12.13;3.05;;;;;;;30.01;50.38;100479.09;5070844;27;70805;-32
2021/07/18 04:40:52;;;;;;;20.15;3.38;;;;;;;30.13;50.57;100501.63;5073151;27;66626;-32
2021/07/18 04:43:22;;;;;;;47.35;3.90;;;;;;;30.16;49.75;100484.13;5068817;27;70354;-31
2021/07/18 04:45:53;;;;;;;37.22;3.97;;;;;;;30.15;49.13;100467.09;5075041;27;64939;-31
2021/07/18 04:48:23;;;;;;;41.50;4.53;;;;;;;30.19;48.57;100479.09;5072244;27;69063;-31
2021/07/18 04:50:54;;;;;;;27.55;3.13;;;;;;;30.20;47.47;100475.34;5072661;27;65894;-31
2021/07/18 04:53:24;;;;;;;25.08;3.45;;;;;;;30.23;48.18;100469.53;5068448;27;69934;-30
2021/07/18 04:55:55;;;;;;;23.92;3.83;;;;;;;30.26;48.54;100463.66;5077779;27;66715;-30
2021/07/18 04:58:25;;;;;;;17.00;3.30;;;;;;;30.28;49.10;100461.56;5075058;27;70034;-31
2021/07/18 05:00:55;;;;;;;18.20;3.05;;;;;;;30.33;49.49;100460.84;5076348;27;66438;-31
2021/07/18 05:03:25;;;;;;;11.45;3.20;;;;;;;30.34;49.34;100454.41;5072905;27;70379;-31
2021/07/18 05:05:56;;;;;;;18.55;2.55;;;;;;;30.36;50.02;100459.56;5077936;27;66088;-31
2021/07/18 05:08:27;;;;;;;10.80;2.30;;;;;;;30.47;51.34;100442.56;5072022;27;70412;-33
2021/07/18 05:10:57;;;;;;;12.45;2.15;;;;;;;30.55;51.71;100453.09;5076092;27;66424;-33
2021/07/18 05:13:28;;;;;;;11.55;2.53;;;;;;;30.54;50.84;100454.16;5075163;27;69966;-32
2021/07/18 05:15:58;;;;;;;6.85;1.52;;;;;;;30.51;51.90;100441.09;5071481;27;66001;-32
2021/07/18 05:18:29;;;;;;;10.68;2.08;;;;;;;30.55;51.62;100442.25;5073346;27;70204;-31
2021/07/18 05:20:59;;;;;;;7.30;1.63;;;;;;;30.55;50.44;100449.56;5072579;27;66583;-32
2021/07/18 05:23:30;;;;;;;10.10;1.98;;;;;;;30.50;49.61;100432.13;5072567;27;69232;-33
2021/07/18 05:26:01;;;;;;;14.80;1.60;;;;;;;30.48;48.95;100433.41;5070620;27;65749;-32
2021/07/18 05:28:32;;;;;;;5.33;1.37;;;;;;;30.44;48.88;100421.38;5069857;27;69493;-33
2021/07/18 05:31:02;;;;;;;9.57;1.58;;;;;;;30.44;48.07;100433.03;5056487;27;65949;-33
2021/07/18 05:33:33;;;;;;;5.55;1.52;;;;;;;30.44;47.41;100416.78;5080696;27;70245;-32
2021/07/18 05:36:04;;;;;;;10.38;1.70;;;;;;;30.35;46.32;100398.41;5076301;27;65629;-32
2021/07/18 05:38:37;;;;;;;2.00;1.42;;;;;;;30.42;46.71;100412.66;5075421;27;70083;-34
2021/07/18 05:41:10;;;;;;;4.43;1.45;;;;;;;30.42;46.34;100399.13;5078285;27;65704;-32
2021/07/18 05:43:40;;;;;;;3.75;1.55;;;;;;;30.40;46.05;100398.56;5078122;27;69973;-32
2021/07/18 05:46:11;;;;;;;8.55;1.42;;;;;;;30.42;45.94;100393.72;5076678;27;66490;-32
2021/07/18 05:48:42;;;;;;;2.00;1.33;;;;;;;30.40;45.82;100376.91;5070925;27;69446;-31
2021/07/18 05:51:13;;;;;;;5.25;1.20;;;;;;;30.37;45.46;100370.06;5072907;27;64936;-32
2021/07/18 05:53:44;;;;;;;4.68;1.35;;;;;;;30.39;45.40;100359.81;5069949;27;71515;-32
2021/07/18 05:56:14;;;;;;;5.97;1.30;;;;;;;30.34;44.68;100340.75;5076465;27;65307;-32
2021/07/18 05:58:45;;;;;;;1.42;1.00;;;;;;;30.42;44.97;100363.94;5075763;27;70260;-32
2021/07/18 06:01:15;;;;;;;2.92;1.40;;;;;;;30.36;44.42;100340.53;5074079;27;65526;-32
2021/07/18 06:03:46;;;;;;;3.80;1.30;;;;;;;30.47;46.44;100345.16;5070440;27;69937;-33
2021/07/18 06:06:17;;;;;;;9.52;1.58;;;;;;;30.54;46.70;100334.25;5067049;27;65955;-31
2021/07/18 06:08:48;;;;;;;6.00;1.48;;;;;;;30.51;45.95;100332.81;5072059;27;70494;-33
2021/07/18 06:11:19;;;;;;;3.95;1.20;;;;;;;30.54;45.87;100340.47;5070434;27;67272;-33
2021/07/18 06:13:50;;;;;;;4.38;1.40;;;;;;;30.55;45.59;100335.88;5068401;27;70201;-33
2021/07/18 06:16:21;;;;;;;4.00;1.40;;;;;;;30.56;44.69;100324.81;5064405;27;66541;-33
2021/07/18 06:18:52;;;;;;;4.83;1.43;;;;;;;30.58;44.96;100330.81;5060602;27;69501;-35
2021/07/18 06:21:22;;;;;;;3.60;1.38;;;;;;;30.60;44.63;100334.13;5068605;27;65379;-34
2021/07/18 06:23:53;;;;;;;5.57;1.85;;;;;;;30.60;44.79;100325.19;5071107;27;70155;-34
2021/07/18 06:26:25;;;;;;;8.98;1.50;;;;;;;30.57;44.58;100321.06;5071491;27;66599;-35
2021/07/18 06:28:56;;;;;;;3.17;1.42;;;;;;;30.53;44.34;100305.50;5070039;27;70516;-34
2021/07/18 06:31:27;;;;;;;9.43;2.00;;;;;;;30.58;44.11;100320.00;5055972;28;66353;-32
2021/07/18 06:33:57;;;;;;;6.20;1.35;;;;;;;30.61;44.18;100313.28;5067134;27;70956;-33
2021/07/18 06:36:32;;;;;;;4.63;1.58;;;;;;;30.56;43.60;100295.03;5070650;27;66233;-35
2021/07/18 06:39:03;;;;;;;1.95;1.23;;;;;;;30.51;43.87;100275.97;5071248;27;70176;-31
2021/07/18 06:41:34;;;;;;;4.43;1.25;;;;;;;30.59;43.59;100300.00;5071299;27;65663;-32
2021/07/18 06:44:04;;;;;;;2.72;1.40;;;;;;;30.57;43.21;100283.16;5070830;27;69890;-31
2021/07/18 06:46:36;;;;;;;3.37;1.50;;;;;;;30.58;42.83;100294.81;5076362;27;66748;-35
2021/07/18 06:49:07;;;;;;;5.88;1.35;;;;;;;30.61;42.43;100297.06;5076526;27;69868;-35
2021/07/18 06:51:37;;;;;;;1.70;1.20;;;;;;;30.60;42.38;100280.00;5071435;27;66963;-37
2021/07/18 06:54:08;;;;;;;1.88;1.13;;;;;;;30.58;42.11;100270.44;5073334;27;70117;-34
2021/07/18 06:56:38;;;;;;;5.47;1.17;;;;;;;30.53;42.10;100268.44;5072390;27;65337;-32
2021/07/18 06:59:09;;;;;;;4.47;1.40;;;;;;;30.58;41.85;100298.34;5073670;27;70041;-33
2021/07/18 07:01:40;;;;;;;2.85;1.55;;;;;;;30.60;42.09;100290.81;5073170;27;65565;-33
2021/07/18 07:04:10;;;;;;;1.65;1.10;;;;;;;30.60;41.73;100315.19;5073198;27;69708;-33
2021/07/18 07:06:41;;;;;;;5.70;1.40;;;;;;;30.63;41.99;100311.19;5077963;27;65136;-35
2021/07/18 07:09:12;;;;;;;2.47;1.20;;;;;;;30.65;42.17;100319.91;5070989;27;70128;-33
2021/07/18 07:11:46;;;;;;;2.47;1.33;;;;;;;30.64;42.06;100308.22;5070504;27;66524;-32
2021/07/18 07:14:16;;;;;;;1.60;1.40;;;;;;;30.62;41.98;100313.06;5071074;27;70015;-32
2021/07/18 07:16:47;;;;;;;8.15;1.30;;;;;;;30.65;41.76;100304.47;5069324;27;65426;-34
2021/07/18 07:19:18;;;;;;;2.20;1.23;;;;;;;30.64;41.58;100310.13;5066162;27;70556;-33
2021/07/18 07:21:48;;;;;;;4.85;1.05;;;;;;;30.62;41.74;100295.97;5072815;27;65568;-33
2021/07/18 07:24:19;;;;;;;3.05;1.17;;;;;;;30.65;41.52;100299.06;5067504;27;69967;-35
2021/07/18 07:26:50;;;;;;;2.40;1.92;;;;;;;30.59;40.95;100286.47;5069735;27;66314;-33
2021/07/18 07:29:20;;;;;;;2.38;1.25;;;;;;;30.64;41.32;100292.00;5070550;27;70235;-32
2021/07/18 07:31:51;;;;;;;13.32;1.35;;;;;;;30.62;41.67;100294.13;5070193;27;65602;-32
2021/07/18 07:34:22;;;;;;;4.20;1.38;;;;;;;30.65;43.46;100301.78;5072244;27;70445;-34
2021/07/18 07:36:52;;;;;;;5.30;1.27;;;;;;;30.69;43.18;100294.00;5062068;27;65536;-35
2021/07/18 07:39:23;;;;;;;5.25;1.40;;;;;;;30.67;43.17;100306.94;5065424;27;69576;-33
2021/07/18 07:41:54;;;;;;;2.33;1.30;;;;;;;30.69;43.38;100294.81;5069109;27;66179;-32
2021/07/18 07:44:25;;;;;;;3.45;1.40;;;;;;;30.71;42.45;100291.91;5069916;27;70028;-32
2021/07/18 07:46:56;;;;;;;2.25;1.23;;;;;;;30.71;42.50;100286.47;5068587;27;67921;-32
2021/07/18 07:49:27;;;;;;;6.18;1.30;;;;;;;30.70;41.53;100296.50;5070380;27;70296;-33
2021/07/18 07:51:57;;;;;;;4.47;1.20;;;;;;;30.66;41.34;100272.81;5070290;27;65154;-32
2021/07/18 07:54:29;;;;;;;4.72;1.35;;;;;;;30.66;41.18;100267.41;5071149;27;69345;-34
2021/07/18 07:57:00;;;;;;;3.75;1.48;;;;;;;30.58;41.22;100254.22;5070035;27;66075;-35
2021/07/18 07:59:32;;;;;;;2.83;1.30;;;;;;;30.63;40.95;100274.09;5071588;27;69929;-34
2021/07/18 08:02:03;;;;;;;6.32;1.10;;;;;;;30.62;40.83;100272.47;5054615;28;65986;-37
2021/07/18 08:04:36;;;;;;;2.15;1.20;;;;;;;30.59;41.16;100283.78;5057432;27;69128;-34
2021/07/18 08:07:06;;;;;;;1.55;1.00;;;;;;;30.57;41.17;100291.28;5066531;27;66453;-35
2021/07/18 08:09:37;;;;;;;2.30;1.35;;;;;;;30.59;40.83;100300.00;5070865;27;69683;-34
2021/07/18 08:12:08;;;;;;;1.98;1.60;;;;;;;30.54;40.91;100297.16;5071592;27;65699;-33
2021/07/18 08:14:38;;;;;;;5.95;1.50;;;;;;;30.59;40.60;100309.97;5072596;27;71198;-32
2021/07/18 08:17:09;;;;;;;2.45;1.52;;;;;;;30.57;40.63;100312.13;5074970;27;64832;-33
2021/07/18 08:19:42;;;;;;;8.60;1.80;;;;;;;30.55;40.68;100319.63;5074323;27;68797;-38
2021/07/18 08:22:12;;;;;;;;;;;;;;;30.28;42.77;100320.00;5074035;27;66031;-31
2021/07/18 08:24:42;;;;;;;6.40;2.08;;;;;;;30.53;43.96;100317.16;5066324;27;70510;-32
2021/07/18 08:27:13;;;;;;;5.40;1.73;;;;;;;30.57;43.59;100329.19;5071209;27;66450;-33
2021/07/18 08:29:43;;;;;;;11.13;2.00;;;;;;;30.50;43.33;100323.84;5070997;27;69300;-34
2021/07/18 08:32:14;;;;;;;9.57;2.60;;;;;;;30.55;46.16;100331.28;5069729;27;66342;-32
2021/07/18 08:34:45;;;;;;;5.13;2.53;;;;;;;30.62;49.06;100334.72;5070140;27;69058;-32
2021/07/18 08:37:15;;;;;;;5.82;3.25;;;;;;;30.70;51.21;100336.25;5075501;27;66298;-34
2021/07/18 08:39:46;;;;;;;14.18;9.25;;;;;;;30.75;51.78;100344.50;5059132;27;70772;-33
2021/07/18 08:42:17;;;;;;;18.00;10.65;;;;;;;30.79;50.83;100353.03;5074304;27;66761;-37
2021/07/18 08:44:48;;;;;;;24.02;11.18;;;;;;;30.77;49.85;100333.47;5052808;27;70669;-37
2021/07/18 08:47:20;;;;;;;17.45;9.07;;;;;;;30.68;48.24;100352.75;5054779;28;65725;-34
2021/07/18 08:49:51;;;;;;;15.07;7.85;;;;;;;30.72;47.38;100353.09;5066553;27;70378;-33
2021/07/18 08:52:28;;;;;;;12.18;7.53;;;;;;;30.68;46.83;100351.94;5070948;27;65396;-33
2021/07/18 08:55:05;;;;;;;11.68;7.10;;;;;;;30.61;46.13;100352.00;5071035;27;68989;-31
2021/07/18 08:57:39;;;;;;;11.13;5.60;;;;;;;30.59;46.16;100364.13;5075196;27;65408;-32
2021/07/18 09:00:10;;;;;;;21.45;6.10;;;;;;;30.54;46.19;100350.47;5071583;27;69069;-32
2021/07/18 09:02:41;;;;;;;19.83;5.50;;;;;;;30.47;46.29;100366.78;5077434;27;66547;-33
2021/07/18 09:05:12;;;;;;;9.98;5.03;;;;;;;30.39;45.30;100362.53;5075338;27;69562;-33
2021/07/18 09:07:49;;;;;;;9.13;5.18;;;;;;;30.41;45.08;100378.53;5077632;27;66069;-33
2021/07/18 09:10:22;;;;;;;22.23;4.10;;;;;;;30.36;44.22;100381.09;5076320;27;69948;-32
2021/07/18 09:13:09;;;;;;;8.90;3.85;;;;;;;30.21;43.62;100390.44;5077918;27;65258;-34
2021/07/18 09:15:52;;;;;;;6.00;3.17;;;;;;;30.25;43.45;100402.47;5071515;27;69942;-34
2021/07/18 09:18:25;;;;;;;10.27;3.42;;;;;;;29.91;43.36;100366.03;5058044;28;65157;-32
2021/07/18 09:20:57;;;;;;;28.95;4.05;;;;;;;30.21;43.90;100431.00;5073455;27;70042;-35
2021/07/18 09:23:30;;;;;;;25.58;4.15;;;;;;;29.68;45.65;100336.97;5077290;27;66054;-33
2021/07/18 09:26:22;;;;;;;25.00;4.20;;;;;;;30.10;48.74;100404.72;5073855;27;69863;-32
2021/07/18 09:28:53;;;;;;;7.83;3.33;;;;;;;30.50;51.66;100447.53;5074312;27;65891;-31
2021/07/18 09:31:39;;;;;;;15.65;4.35;;;;;;;30.65;55.46;100439.84;5059426;27;71448;-33
2021/07/18 09:34:21;;;;;;;13.07;4.32;;;;;;;30.82;56.27;100444.66;5093999;27;65997;-33
2021/07/18 09:36:51;;;;;;;9.80;4.00;;;;;;;30.92;55.75;100458.44;5039452;28;70777;-33
2021/07/18 09:39:33;;;;;;;22.40;4.72;;;;;;;31.02;56.63;100450.59;5076892;27;67197;-34
2021/07/18 09:42:06;;;;;;;6.65;3.90;;;;;;;31.13;55.90;100462.50;5051141;28;70177;-34
2021/07/18 09:44:45;;;;;;;10.05;3.25;;;;;;;31.22;55.79;100476.53;5075160;27;65873;-32
2021/07/18 09:47:15;;;;;;;8.02;3.33;;;;;;;31.25;55.03;100473.38;5070274;27;69861;-34
2021/07/18 09:49:48;;;;;;;10.27;3.78;;;;;;;31.28;55.20;100475.63;5074484;27;67285;-35
2021/07/18 09:52:21;;;;;;;4.88;3.38;;;;;;;31.32;54.93;100482.25;5049994;27;69541;-32
2021/07/18 09:54:53;;;;;;;7.43;4.00;;;;;;;31.32;55.22;100487.66;5073147;27;66245;-33
2021/07/18 09:57:34;;;;;;;6.30;3.80;;;;;;;31.32;55.95;100493.06;5078900;27;71632;-36
2021/07/18 10:00:08;;;;;;;5.65;4.32;;;;;;;31.36;55.44;100515.97;5075629;27;65461;-35
2021/07/18 10:02:42;;;;;;;8.13;4.97;;;;;;;31.35;56.66;100503.44;5073562;27;70349;-35
2021/07/18 10:05:26;;;;;;;10.55;4.43;;;;;;;31.24;58.58;100501.53;5056091;27;66327;-36
2021/07/18 10:08:07;;;;;;;9.63;4.38;;;;;;;31.32;58.91;100520.19;5080263;27;69649;-35
2021/07/18 10:10:39;;;;;;;13.90;4.75;;;;;;;31.40;57.93;100522.59;5074284;27;66463;-34
2021/07/18 10:13:10;;;;;;;10.60;4.35;;;;;;;31.42;58.91;100534.00;5078145;27;70070;-34
2021/07/18 10:15:41;;;;;;;4.88;4.47;;;;;;;31.44;57.30;100507.50;5042254;27;65920;-34
2021/07/18 10:18:11;;;;;;;6.25;4.28;;;;;;;31.51;57.26;100513.66;5069303;27;70185;-35
2021/07/18 10:20:43;;;;;;;11.15;3.83;;;;;;;31.28;56.63;100467.47;5068960;27;65154;-35
2021/07/18 10:23:22;;;;;;;6.10;3.75;;;;;;;31.53;57.42;100495.25;5071489;27;70097;-35
2021/07/18 10:26:14;;;;;;;4.60;4.03;;;;;;;31.58;56.54;100508.94;5068824;27;66276;-33
2021/07/18 10:28:44;;;;;;;;;;;;;;;31.34;57.61;100507.19;5070780;27;70210;-34
2021/07/18 10:31:38;;;;;;;8.65;3.90;;;;;;;31.54;56.87;100501.50;5069472;27;65551;-32
2021/07/18 10:34:10;;;;;;;7.13;3.28;;;;;;;31.64;56.27;100504.44;5069782;27;69149;-33
2021/07/18 10:36:41;;;;;;;5.73;3.50;;;;;;;31.67;56.54;100508.56;5073773;27;65986;-34
2021/07/18 10:39:35;;;;;;;5.22;3.55;;;;;;;31.61;56.08;100513.88;5072454;27;69883;-34
2021/07/18 10:42:15;;;;;;;8.52;4.15;;;;;;;31.51;55.45;100480.25;5070425;27;66067;-36
2021/07/18 10:44:50;;;;;;;11.00;4.65;;;;;;;31.72;56.29;100509.53;5077069;27;70533;-34
2021/07/18 10:47:20;;;;;;;9.55;3.95;;;;;;;31.69;55.79;100493.72;5074447;27;65481;-34
2021/07/18 10:49:57;;;;;;;6.85;3.70;;;;;;;31.73;54.92;100504.91;5076198;27;70166;-33
2021/07/18 10:52:35;;;;;;;5.60;3.30;;;;;;;31.67;56.15;100497.72;5072957;27;66729;-33
2021/07/18 10:55:23;;;;;;;5.25;3.60;;;;;;;31.60;56.33;100495.97;5070547;27;70585;-34
2021/07/18 10:57:53;;;;;;;10.70;3.63;;;;;;;31.65;55.87;100491.72;5070386;27;65924;-34
2021/07/18 11:00:29;;;;;;;6.97;3.58;;;;;;;31.65;55.63;100470.03;5073778;27;70311;-38
2021/07/18 11:03:13;;;;;;;7.03;3.58;;;;;;;31.61;56.31;100470.50;5040525;28;66002;-33
2021/07/18 11:05:50;;;;;;;5.78;4.05;;;;;;;31.61;56.26;100448.81;5078536;27;69272;-35
2021/07/18 11:08:20;;;;;;;9.10;4.30;;;;;;;31.59;56.04;100453.66;5054532;27;65634;-36
2021/07/18 11:10:55;;;;;;;4.50;3.78;;;;;;;31.13;55.89;100376.63;5078101;27;69360;-34
2021/07/18 11:13:25;;;;;;;9.10;4.25;;;;;;;31.58;55.77;100454.69;5074875;27;65648;-35
2021/07/18 11:15:56;;;;;;;5.32;3.90;;;;;;;31.53;56.38;100470.84;5061333;27;69964;-34
2021/07/18 11:18:37;;;;;;;7.68;4.13;;;;;;;31.49;55.96;100475.09;5066474;27;66470;-35
2021/07/18 11:21:31;;;;;;;4.97;4.28;;;;;;;31.42;56.00;100457.28;5076837;27;69278;-34
2021/07/18 11:24:01;;;;;;;6.50;3.97;;;;;;;31.52;56.24;100493.59;5076758;27;66263;-34
2021/07/18 11:26:47;;;;;;;7.00;4.25;;;;;;;31.46;56.18;100502.66;5071435;27;70397;-35
2021/07/18 11:29:33;;;;;;;12.98;4.35;;;;;;;31.35;57.41;100530.56;5042262;28;65013;-35
2021/07/18 11:32:22;;;;;;;6.60;4.53;;;;;;;31.20;57.97;100535.56;5074073;27;70481;-33
2021/07/18 11:34:56;;;;;;;6.00;5.28;;;;;;;31.16;57.75;100538.72;5072878;27;66496;-33
2021/07/18 11:37:29;;;;;;;6.82;4.47;;;;;;;31.10;58.00;100542.38;5071044;27;70008;-33
2021/07/18 11:40:16;;;;;;;6.53;5.07;;;;;;;31.00;58.48;100550.22;5069956;27;66189;-33
2021/07/18 11:42:51;;;;;;;6.60;4.90;;;;;;;30.97;57.66;100549.84;5073554;27;69437;-36
2021/07/18 11:45:21;;;;;;;8.85;4.78;;;;;;;30.92;57.99;100553.22;5073296;27;66222;-33
2021/07/18 11:47:52;;;;;;;8.02;4.15;;;;;;;30.82;57.60;100548.38;5074298;27;69193;-33
2021/07/18 11:50:23;;;;;;;5.03;4.10;;;;;;;30.78;57.36;100557.97;5076296;27;66674;-36